Time;durP1;ratioP1;P1;durP2;ratioP2;P2;SDS_P1;SDS_P2;PMS_P1;PMS_P2;Temp;Humidity;BMP_temperature;BMP_pressure;BME280_temperature;BME280_humidity;BME280_pressure;Samples;Min_cycle;Max_cycle;Signal;HPM_P1;HPM_P2
2022/12/15 11:00:38;;;;;;;;;17.00;15.50;;;;;19.80;41.47;100320.06;5029018;28;45685;-72
2022/12/15 11:03:20;;;;;;;;;16.00;16.00;;;;;20.18;41.58;100323.47;5023259;28;45630;-73
2022/12/15 11:05:56;;;;;;;;;13.25;13.25;;;;;20.79;41.78;100318.16;5014764;27;45512;-74
2022/12/15 11:08:22;;;;;;;;;15.25;14.25;;;;;;;;5025336;28;45650;-72
2022/12/15 11:13:38;;;;;;;;;16.00;15.25;;;;;22.48;41.18;100309.19;5012903;28;45350;-72
2022/12/15 11:16:18;;;;;;;;;13.00;11.75;;;;;22.95;41.23;100295.91;5019089;27;45562;-72
2022/12/15 11:18:52;;;;;;;;;17.25;15.50;;;;;23.35;40.91;100295.06;5026823;28;45593;-71
2022/12/15 11:21:29;;;;;;;;;15.50;15.50;;;;;23.72;40.15;100277.22;5025670;28;45437;-74
2022/12/15 11:24:03;;;;;;;;;16.25;14.00;;;;;24.04;39.94;100266.28;5027125;27;45494;-74
2022/12/15 11:26:49;;;;;;;;;15.25;12.75;;;;;24.30;39.65;100265.88;5013513;27;45603;-74
2022/12/15 11:29:48;;;;;;;;;13.00;11.25;;;;;24.53;39.40;100250.53;5023985;28;46315;-74
2022/12/15 11:32:14;;;;;;;;;12.25;11.50;;;;;24.65;39.41;100240.91;5039005;27;45495;-74
2022/12/15 11:34:44;;;;;;;;;11.50;11.50;;;;;24.89;39.17;100248.97;5016750;28;45328;-74
2022/12/15 11:37:34;;;;;;;;;13.50;13.50;;;;;25.01;38.76;100244.72;5013736;27;45510;-74
2022/12/15 11:40:35;;;;;;;;;15.33;12.00;;;;;25.14;38.45;100246.75;5024406;28;45689;-75
2022/12/15 11:43:22;;;;;;;;;13.25;13.25;;;;;25.23;38.27;100248.31;5017375;28;46123;-74
2022/12/15 11:46:08;;;;;;;;;12.00;11.67;;;;;25.32;37.97;100248.19;5032654;27;45526;-74
2022/12/15 11:48:54;;;;;;;;;14.00;12.00;;;;;25.41;37.98;100247.03;5029743;27;45493;-73
2022/12/15 11:51:29;;;;;;;;;17.00;14.67;;;;;25.49;37.97;100236.03;5024908;27;45687;-75
2022/12/15 11:53:55;;;;;;;;;11.67;11.67;;;;;25.57;37.49;100237.81;5024829;27;46274;-77
2022/12/15 11:56:34;;;;;;;;;11.00;11.00;;;;;25.67;37.22;100234.78;5012845;28;45473;-74
2022/12/15 11:59:35;;;;;;;;;11.67;11.67;;;;;25.81;37.49;100230.28;5026693;28;45347;-75
2022/12/15 12:02:22;;;;;;;;;13.00;12.33;;;;;25.92;37.35;100218.88;5031118;27;45472;-74
2022/12/15 12:05:03;;;;;;;;;14.00;14.00;;;;;26.01;37.16;100216.88;5016215;27;45674;-74
2022/12/15 12:07:43;;;;;;;;;15.00;14.33;;;;;26.12;37.14;100217.34;5017410;28;45478;-76
2022/12/15 12:10:29;;;;;;;;;15.33;15.33;;;;;26.08;36.68;100188.88;5013464;27;45510;-75
2022/12/15 12:13:15;;;;;;;;;17.67;15.00;;;;;26.24;36.57;100212.19;4996818;27;45608;-77
2022/12/15 12:16:08;;;;;;;;;17.00;17.00;;;;;26.24;36.50;100206.75;5015939;28;46307;-74
2022/12/15 12:18:55;;;;;;;;;14.67;12.67;;;;;26.21;36.58;100197.13;4998843;28;45471;-74
2022/12/15 12:21:29;;;;;;;;;15.67;13.33;;;;;26.19;35.94;100193.75;4989426;27;45475;-74
2022/12/15 12:24:02;;;;;;;;;13.00;13.00;;;;;26.23;36.99;100196.91;5000660;28;45880;-72
2022/12/15 12:26:30;;;;;;;;;14.00;13.33;;;;;26.23;36.50;100200.47;5001887;28;46285;-73
2022/12/15 12:29:02;;;;;;;;;13.33;13.33;;;;;26.26;36.53;100204.69;5007156;28;45635;-77
2022/12/15 12:31:36;;;;;;;;;16.67;14.00;;;;;26.31;36.18;100197.63;4994480;27;45642;-74
2022/12/15 12:34:12;;;;;;;;;11.33;11.33;;;;;26.31;36.00;100188.59;4998140;28;45729;-74
2022/12/15 12:36:40;;;;;;;;;11.00;11.00;;;;;26.31;36.33;100177.72;5003824;28;45505;-72
2022/12/15 12:39:16;;;;;;;;;13.00;13.00;;;;;26.41;36.30;100194.53;4996457;28;45675;-74
2022/12/15 12:41:45;;;;;;;;;15.33;13.33;;;;;26.47;36.14;100194.75;5079207;27;45464;-72
2022/12/15 12:44:30;;;;;;;;;12.67;12.67;;;;;26.51;35.59;100196.03;4998476;27;45536;-74
2022/12/15 12:47:04;;;;;;;;;14.00;14.00;;;;;26.49;36.25;100190.81;5006498;28;46488;-72
2022/12/15 12:49:36;;;;;;;;;15.67;12.33;;;;;26.51;35.48;100183.28;5002276;28;45334;-72
2022/12/15 12:52:04;;;;;;;;;12.00;12.00;;;;;26.53;35.84;100191.25;4994520;27;45508;-72
2022/12/15 12:54:33;;;;;;;;;12.33;12.33;;;;;26.52;35.91;100181.41;5000592;27;45731;-79
2022/12/15 12:56:59;;;;;;;;;9.33;9.33;;;;;26.49;35.62;100176.34;4996311;28;45434;-80
2022/12/15 12:59:27;;;;;;;;;13.33;13.00;;;;;26.50;35.54;100173.44;5004807;28;45444;-73
2022/12/15 13:02:09;;;;;;;;;13.00;12.00;;;;;26.53;35.85;100183.91;4999158;27;45541;-74
2022/12/15 13:04:35;;;;;;;;;15.00;13.67;;;;;26.54;35.20;100172.00;5006338;28;45566;-72
2022/12/15 13:07:03;;;;;;;;;13.67;12.33;;;;;26.54;35.27;100168.44;4990064;27;46082;-72
2022/12/15 13:09:42;;;;;;;;;13.00;13.00;;;;;26.53;35.26;100159.41;4993535;28;45351;-73
2022/12/15 13:12:36;;;;;;;;;13.33;11.33;;;;;26.60;35.67;100155.91;5003120;27;45853;-72
2022/12/15 13:15:17;;;;;;;;;12.33;12.33;;;;;26.59;35.16;100144.16;5004122;28;45522;-74
2022/12/15 13:17:50;;;;;;;;;13.33;12.33;;;;;26.66;35.01;100145.03;4996647;27;46598;-77
2022/12/15 13:20:42;;;;;;;;;13.33;12.67;;;;;26.73;35.03;100145.03;4996926;28;45886;-78
2022/12/15 13:23:20;;;;;;;;;12.00;12.00;;;;;26.83;35.40;100139.22;4991724;27;45498;-75
2022/12/15 13:26:09;;;;;;;;;10.00;10.00;;;;;26.91;34.91;100149.91;4996885;28;45591;-73
2022/12/15 13:28:35;;;;;;;;;12.33;10.67;;;;;26.95;35.33;100144.94;4995587;27;45633;-77
2022/12/15 13:31:15;;;;;;;;;11.00;10.33;;;;;27.00;34.87;100157.91;5019500;27;45409;-77
2022/12/15 13:33:50;;;;;;;;;11.67;10.67;;;;;27.02;34.69;100155.84;5003793;27;45541;-71
2022/12/15 13:36:37;;;;;;;;;15.00;15.00;;;;;27.01;34.78;100154.16;4994581;27;45400;-74
2022/12/15 13:39:11;;;;;;;;;11.00;11.00;;;;;27.01;34.99;100154.16;4994123;27;45521;-73
2022/12/15 13:41:39;;;;;;;;;11.00;10.00;;;;;26.97;34.71;100159.16;5000439;28;45449;-74
2022/12/15 13:44:16;;;;;;;;;10.33;10.33;;;;;26.89;34.88;100151.16;5003499;28;45436;-81
2022/12/15 13:46:45;;;;;;;;;12.00;11.00;;;;;26.86;34.78;100151.56;5048615;27;45457;-74
2022/12/15 13:49:19;;;;;;;;;11.67;11.00;;;;;26.87;34.80;100153.25;5005534;27;45644;-73
2022/12/15 13:51:45;;;;;;;;;9.00;8.33;;;;;26.84;34.73;100155.34;5002300;28;45523;-73
2022/12/15 13:54:22;;;;;;;;;10.00;10.00;;;;;26.79;34.38;100137.94;5008125;27;45614;-75
2022/12/15 13:57:03;;;;;;;;;9.67;9.67;;;;;26.86;34.46;100152.44;5011586;27;45458;-76
2022/12/15 13:59:32;;;;;;;;;9.67;9.67;;;;;26.86;34.72;100149.69;5001922;27;45536;-76
2022/12/15 14:01:57;;;;;;;;;10.00;9.33;;;;;26.89;34.31;100151.16;5005583;28;45873;-75
2022/12/15 14:04:23;;;;;;;;;10.67;10.67;;;;;26.92;34.26;100151.59;4993211;28;45704;-74
2022/12/15 14:06:59;;;;;;;;;12.33;12.33;;;;;26.92;34.19;100140.69;4997836;28;45594;-75
2022/12/15 14:09:32;;;;;;;;;14.00;11.67;;;;;27.00;34.50;100145.16;4996378;27;46198;-73
2022/12/15 14:12:00;;;;;;;;;10.67;10.33;;;;;27.03;34.63;100141.16;4991271;27;45455;-76
2022/12/15 14:14:30;;;;;;;;;12.00;10.33;;;;;27.00;34.08;100131.53;4999311;28;45459;-75
2022/12/15 14:17:01;;;;;;;;;12.33;11.33;;;;;27.05;34.21;100142.63;4997095;28;45382;-76
2022/12/15 14:19:39;;;;;;;;;10.33;10.00;;;;;27.01;34.32;100146.00;5002540;27;46269;-78
2022/12/15 14:22:24;;;;;;;;;11.67;10.00;;;;;26.96;34.35;100143.88;4999442;28;45576;-76
2022/12/15 14:24:51;;;;;;;;;13.00;10.67;;;;;26.97;33.84;100156.44;5004126;28;45695;-78
2022/12/15 19:43:16;;;;;;;;;12.25;9.50;;;;;17.45;38.94;100442.16;5068602;27;46236;-80
2022/12/15 19:45:42;;;;;;;;;12.00;12.00;;;;;17.85;39.58;100441.28;5056510;28;45523;-75
2022/12/15 19:48:10;;;;;;;;;10.50;9.50;;;;;18.52;39.49;100446.00;5062465;27;45734;-76
2022/12/15 19:50:39;;;;;;;;;6.75;6.75;;;;;19.21;39.59;100440.53;5057885;28;45650;-75
2022/12/15 19:53:09;;;;;;;;;8.75;7.00;;;;;19.96;39.68;100451.38;5054505;28;46247;-74
2022/12/15 19:55:35;;;;;;;;;7.50;7.50;;;;;20.54;39.13;100438.47;5059848;27;45549;-77
2022/12/15 19:58:20;;;;;;;;;9.00;9.00;;;;;21.17;39.14;100433.88;5056579;27;45543;-87
2022/12/15 20:00:48;;;;;;;;;7.25;7.25;;;;;21.63;38.48;100440.84;5062392;27;45752;-78
2022/12/15 20:03:14;;;;;;;;;7.50;6.50;;;;;21.96;38.29;100440.94;5061165;27;45545;-75
2022/12/15 20:05:40;;;;;;;;;8.50;6.75;;;;;22.36;37.86;100452.00;5057575;28;45535;-74
2022/12/15 20:08:05;;;;;;;;;7.00;7.00;;;;;22.66;37.57;100445.28;5059190;27;45527;-83
2022/12/15 20:10:30;;;;;;;;;7.25;5.50;;;;;22.90;37.64;100447.94;5069423;27;45498;-75
2022/12/15 20:12:56;;;;;;;;;9.00;8.75;;;;;23.11;37.62;100441.16;5069985;28;45890;-73
2022/12/15 20:15:24;;;;;;;;;11.25;7.25;;;;;23.37;37.24;100445.50;5081157;27;45661;-76
2022/12/15 20:17:54;;;;;;;;;9.75;8.00;;;;;23.59;37.09;100453.03;5066671;27;45604;-75
2022/12/15 20:20:20;;;;;;;;;7.00;6.50;;;;;23.76;36.76;100448.38;5078568;27;45827;-77
2022/12/15 20:22:48;;;;;;;;;7.67;7.00;;;;;23.93;36.91;100463.56;5081101;27;46174;-76
2022/12/15 20:25:32;;;;;;;;;8.00;5.75;;;;;24.06;36.98;100464.81;5073390;27;46270;-74
2022/12/15 20:27:59;;;;;;;;;7.00;6.67;;;;;24.13;36.65;100464.97;5061492;27;45644;-73
2022/12/15 20:30:34;;;;;;;;;7.00;7.00;;;;;24.16;36.18;100460.03;5063611;27;46199;-77
2022/12/15 20:33:02;;;;;;;;;6.00;6.00;;;;;24.32;36.62;100463.69;5064259;28;45347;-85
2022/12/15 20:35:30;;;;;;;;;7.00;6.67;;;;;24.45;36.49;100463.88;5062781;27;45546;-79
2022/12/15 20:37:56;;;;;;;;;8.67;7.00;;;;;24.57;36.20;100466.19;5058126;27;45539;-76
2022/12/15 20:40:30;;;;;;;;;7.33;5.67;;;;;24.72;36.04;100469.78;5058826;28;45677;-75
2022/12/15 20:42:56;;;;;;;;;7.00;7.00;;;;;24.79;36.05;100461.75;5089058;27;45544;-75
2022/12/15 20:45:25;;;;;;;;;7.33;7.33;;;;;24.87;35.64;100471.72;5082508;27;45428;-73
2022/12/15 20:47:53;;;;;;;;;9.67;8.33;;;;;24.90;35.65;100475.94;5082073;27;46131;-73
2022/12/15 20:50:21;;;;;;;;;9.00;7.33;;;;;24.93;35.55;100464.72;5078350;27;45742;-73
2022/12/15 20:52:47;;;;;;;;;6.33;6.33;;;;;24.95;35.45;100474.38;5074188;27;47096;-72
2022/12/15 20:55:13;;;;;;;;;8.33;7.00;;;;;24.97;35.72;100479.63;5067629;27;46941;-74
2022/12/15 20:57:39;;;;;;;;;6.33;6.33;;;;;24.98;35.94;100467.72;5066304;27;45424;-78
2022/12/15 21:00:05;;;;;;;;;6.67;6.00;;;;;25.03;35.37;100475.28;5067796;28;45463;-75
2022/12/15 21:02:31;;;;;;;;;6.33;6.33;;;;;24.96;35.09;100451.63;5065707;27;46435;-77
2022/12/15 21:04:56;;;;;;;;;6.00;6.00;;;;;25.06;35.31;100467.63;5066745;27;45583;-76
2022/12/15 21:07:22;;;;;;;;;5.33;5.33;;;;;25.08;35.42;100471.00;5040466;27;45559;-75
2022/12/15 21:09:47;;;;;;;;;6.33;6.33;;;;;25.10;35.38;100468.09;5064844;27;45554;-76
2022/12/15 21:12:20;;;;;;;;;7.00;7.00;;;;;25.18;35.09;100475.31;5068332;27;46848;-76
2022/12/15 21:14:46;;;;;;;;;5.00;5.00;;;;;25.21;34.93;100477.66;5042608;28;45431;-75
2022/12/15 21:17:14;;;;;;;;;5.33;5.33;;;;;25.22;35.41;100476.66;5076602;27;45490;-74
2022/12/15 21:19:40;;;;;;;;;6.33;6.00;;;;;25.24;35.09;100483.56;5054775;28;45427;-75
2022/12/15 21:22:16;;;;;;;;;7.00;5.00;;;;;25.24;35.02;100478.13;5068948;27;45502;-75
